This is the latest recevied weather packets stored in our database for station/object SQ9SMC-13. If no packets are shown the sender has not sent any weather packets the latest 10 day(s).
| Time | Temp. | Humidity | Pressure | Rain* | Wind** | Luminosity | Snow |
|---|---|---|---|---|---|---|---|
| 1777869603 | 15° C | 44% | 1016.9 hPa | 0 mm | - | 52 W/m² | - |
| 1777869302 | 14.44° C | 45% | 1016.7 hPa | 0 mm | - | 48 W/m² | - |
| 1777869002 | 14.44° C | 45% | 1016.9 hPa | 0 mm | - | 44 W/m² | - |
| 1777868703 | 14.44° C | 46% | 1016.9 hPa | 0 mm | - | 40 W/m² | - |
| 1777868403 | 14.44° C | 45% | 1016.7 hPa | 0 mm | - | 37 W/m² | - |
| 1777868103 | 13.89° C | 45% | 1016.9 hPa | 0 mm | - | 34 W/m² | - |
| 1777867804 | 13.89° C | 46% | 1016.6 hPa | 0 mm | - | 30 W/m² | - |
| 1777867502 | 13.33° C | 47% | 1016.6 hPa | 0 mm | - | 27 W/m² | - |
| 1777866902 | 12.78° C | 49% | 1016.5 hPa | 0 mm | - | 21 W/m² | - |
| 1777866004 | 12.22° C | 51% | 1016.7 hPa | 0 mm | - | 13 W/m² | - |
| 1777865705 | 12.22° C | 51% | 1016.8 hPa | 0 mm | - | 11 W/m² | - |
| 1777865403 | 12.22° C | 50% | 1016.8 hPa | 0 mm | - | 8 W/m² | - |
| 1777863004 | 11.67° C | 52% | 1016.5 hPa | 0 mm | - | 0 W/m² | - |
| 1777847403 | 14.44° C | 48% | 1017.2 hPa | 0 mm | - | 0 W/m² | - |
| 1777846204 | 13.33° C | 51% | 1017.4 hPa | 0 mm | - | 0 W/m² | - |
| 1777845003 | 14.44° C | 50% | 1017.5 hPa | 0 mm | - | 0 W/m² | - |
| 1777844703 | 15° C | 48% | 1017.4 hPa | 0 mm | - | 0 W/m² | - |
| 1777844103 | 15.56° C | 47% | 1017.4 hPa | 0 mm | - | 0 W/m² | - |
| 1777842004 | 15° C | 49% | 1017.3 hPa | 0 mm | - | 0 W/m² | - |
| 1777839903 | 9.44° C | 75% | 1017.6 hPa | 0 mm | - | 0 W/m² | - |
| 1777839603 | 9.44° C | 74% | 1017.3 hPa | 0 mm | - | 0 W/m² | - |
| 1777839303 | 10° C | 74% | 1017.5 hPa | 0 mm | - | 0 W/m² | - |
| 1777837503 | 10.56° C | 69% | 1017.5 hPa | 0 mm | - | 0 W/m² | - |
| 1777832703 | 16.67° C | 50% | 1017.2 hPa | 0 mm | - | 0 W/m² | - |
| 1777830903 | 21.67° C | 35% | 1017 hPa | 0 mm | - | 6 W/m² | - |
* Rain latest hour (hover to see other rain measurements)
** Current wind speed in m/s (hover to see current wind gust speed)